Current Conditions
Scattered
Clouds



Pressure
1012.92 (hPa) - 29.91 (inHG)
Visibility

6.2 (miles) - 10.0 (km)
Temperature
21  °C
Temperature
16  °C
Dewpoint
73  %
 Humidity
Wind Speed
14  mph
12  kts
23  km/h
6.3  m/s
Wind Direction
N
45°
E
90°
135°
S
180°
225°
W
270°
315°
 280°

Due West
Airport Data
EGCC
Manchester Airport
Metar :EGCC 241550Z AUTO 28012KT 9999 SCT024 BKN042 21/16 Q1013
Fri 24th September 16:50 pm
Raw Metar Info
Raw METAR is the most common format in the world for the transmission of observational weather data. It is highly standardized through the International Civil Aviation Organization (ICAO), which allows it to be understood throughout most of the world.
API Info
Data Provided by
https://www.checkwx.com/weather/EGCC

Aviation Weather providing METAR, TAF, AIRMET, SIGMET and OUTLOOK Weather Reports
© Info
CSS/SVG/PHP scripts were developed by weather34.com for use in the weather34 template © 2015-2021

Guide Info provided by Metar-Wikipedia